Lee Hall, Virginia
Current Conditions -  °F | °C
As of 5:06 AM on Monday 22 Dec 2014 (Local Time) from KFAF Reporting Station
Drizzle Drizzle  
Wind Chill: 36°   Ceiling: 4300
Heat Index: 39°   Visibility: 10mi
Dew Point: 32°   Wind: 5mph
Humidity: 75%   Direction: 30°NNE
Pressure: 30.21"   Gusts: NA
Location:  37.1935°N, 76.5695°W
Report Text: KFAF 221006Z AUTO 03004KT 10SM -DZ OVC043 04/00 A3021 RMK AO2 DZB1007 $
Loading
Personal Weather Stations






























Interactive Weather Map New forecast layout! Learn more

10-Day Weather Forecast

Advertisements
Track Severe Weather on mobile